Cooperative Ambassador — WDB9871 — position and weather

sailwx.info

Track history (hours):
 
Tides and Currents Weather Stations Pressure Air Temp Water Temp Dewpoint Dewpoint Depression Visibility Wind Speed Wind Dir Waves Ship Positions

Cooperative Ambassador

Owner: American River Transportation Company, St Louis, MO. More information available from US FCC via Universal Licensing System and Coast Guard Vessel Documentation Center.

Last reported at 2018-Apr-19 22:39 UTC. Time now 2018-Apr-22 21:39 UTC.
Position N 39°09' W 090°43'.

Length 43 m; draft 3.4 m.

Type: Towing. MMSI: 366984260.

Date/timePositionNaut miles runAvg speedWind from/ knotsBaromVisibWave heightAir tempDewpointWater temp
2018-Apr-19 22:39N 39°09' W 090°43'0 3.2
2018-Apr-19 22:30N 39°09' W 090°43'2 3.5
2018-Apr-19 21:59N 39°07' W 090°42'3 3.1
2018-Apr-19 20:54N 39°04' W 090°42'1 3.2
2018-Apr-19 20:30N 39°03' W 090°43'2 3.5
2018-Apr-19 20:00N 39°01' W 090°42'1 2.0
2018-Apr-19 19:30N 39°00' W 090°41'0 0.2
2018-Apr-19 19:00N 39°00' W 090°41'0 0.0
2018-Apr-19 18:30N 39°00' W 090°41'1 1.1
2018-Apr-19 18:00N 38°60' W 090°41'2 3.5
2018-Apr-19 17:29N 38°58' W 090°40'2 3.9
2018-Apr-19 17:00N 38°56' W 090°40'2 3.7
2018-Apr-19 16:30N 38°55' W 090°39'2 4.1
2018-Apr-19 16:00N 38°53' W 090°37'2 4.0
2018-Apr-19 15:30N 38°52' W 090°35'2 4.3
2018-Apr-19 15:00N 38°53' W 090°32'2 4.2
2018-Apr-19 14:30N 38°55' W 090°31'2 4.0
2018-Apr-19 14:00N 38°56' W 090°29'2 4.1
2018-Apr-19 13:30N 38°57' W 090°27'2 4.8
2018-Apr-19 13:00N 38°58' W 090°24'3 5.5
2018-Apr-19 12:30N 38°57' W 090°21'3 5.5
2018-Apr-19 12:01N 38°55' W 090°18'3 5.6
2018-Apr-19 11:30N 38°55' W 090°14'3 5.4
2018-Apr-19 11:00N 38°53' W 090°12'2 4.7
2018-Apr-19 10:30N 38°52' W 090°09'0 0.6
2018-Apr-19 10:00N 38°52' W 090°09'1 2.3
2018-Apr-19 09:30N 38°51' W 090°07'1 2.7
2018-Apr-19 09:00N 38°50' W 090°06'2 3.1
2018-Apr-19 08:31N 38°49' W 090°07'2 3.5
2018-Apr-19 08:00N 38°47' W 090°08'2 3.0
2018-Apr-19 07:21N 38°45' W 090°09'1 3.6
2018-Apr-19 07:00N 38°44' W 090°09'2 4.1
2018-Apr-19 06:30N 38°42' W 090°11'1 0.9
2018-Apr-19 05:48N 38°42' W 090°11'1 2.4
2018-Apr-19 05:31N 38°41' W 090°11'2 3.8
2018-Apr-19 05:00N 38°39' W 090°11'1 1.0
2018-Apr-19 04:30N 38°39' W 090°11'0 0.1
2018-Apr-19 03:58N 38°39' W 090°11'0 0.3
2018-Apr-19 03:30N 38°39' W 090°11'0 0.1
2018-Apr-19 03:00N 38°39' W 090°11'0 0.1
2018-Apr-19 02:19N 38°39' W 090°11'0 0.1
2018-Apr-19 01:58N 38°39' W 090°11'0 0.0
2018-Apr-19 01:05N 38°39' W 090°11'0 0.3
2018-Apr-19 01:00N 38°39' W 090°11'0 0.1
2018-Apr-19 00:30N 38°39' W 090°11'0 0.0
2018-Apr-19 00:01N 38°39' W 090°11'0 0.0
2018-Apr-18 23:28N 38°39' W 090°11'0 0.1
2018-Apr-18 22:59N 38°39' W 090°11'0 0.0
2018-Apr-18 22:20N 38°39' W 090°11'0 0.4
2018-Apr-18 21:56N 38°39' W 090°11'1 3.0
2018-Apr-18 21:29N 38°38' W 090°11'  
2018-Apr-11 16:21N 32°40' W 091°07'2 4.9
2018-Apr-11 15:59N 32°39' W 091°07'2 4.9
2018-Apr-11 15:29N 32°36' W 091°08'3 5.3
2018-Apr-11 15:00N 32°34' W 091°07'3 5.2
2018-Apr-11 14:30N 32°32' W 091°07'3 5.1
2018-Apr-11 14:00N 32°29' W 091°07'2 4.7
2018-Apr-11 13:30N 32°27' W 091°05'3 5.5
2018-Apr-11 13:00N 32°26' W 091°02'3 5.0
2018-Apr-11 12:30N 32°25' W 091°00'2 4.9
2018-Apr-11 12:00N 32°22' W 091°00'2 4.3
2018-Apr-11 11:30N 32°21' W 090°58'2 4.7
2018-Apr-11 11:00N 32°20' W 090°56'2 3.3
2018-Apr-11 10:30N 32°19' W 090°54'3 5.3
2018-Apr-11 10:00N 32°17' W 090°57'2 4.8
2018-Apr-11 09:30N 32°15' W 090°58'3 5.4
2018-Apr-11 09:00N 32°13' W 090°59'2 4.9
2018-Apr-11 08:30N 32°10' W 090°60'2 4.6
2018-Apr-11 08:00N 32°08' W 091°01'2 4.5
2018-Apr-11 07:30N 32°08' W 091°03'2 4.4
2018-Apr-11 07:00N 32°07' W 091°06'2 4.8
2018-Apr-11 06:30N 32°05' W 091°05'3 5.0
2018-Apr-11 06:00N 32°02' W 091°05'  
Track history (hours):
 
Tides and Currents Weather Stations Pressure Air Temp Water Temp Dewpoint Dewpoint Depression Visibility Wind Speed Wind Dir Waves Ship Positions

Cooperative Ambassador

Owner: American River Transportation Company, St Louis, MO. More information available from US FCC via Universal Licensing System and Coast Guard Vessel Documentation Center.

Last reported at 2018-Apr-19 22:39 UTC. Time now 2018-Apr-22 21:39 UTC.
Position N 39°09' W 090°43'.

Length 43 m; draft 3.4 m.

Type: Towing. MMSI: 366984260.

Date/timePositionNaut miles runAvg speedWind from/ knotsBaromVisibWave heightAir tempDewpointWater temp
2018-Apr-19 22:39N 39°09' W 090°43'0 3.2
2018-Apr-19 22:30N 39°09' W 090°43'2 3.5
2018-Apr-19 21:59N 39°07' W 090°42'3 3.1
2018-Apr-19 20:54N 39°04' W 090°42'1 3.2
2018-Apr-19 20:30N 39°03' W 090°43'2 3.5
2018-Apr-19 20:00N 39°01' W 090°42'1 2.0
2018-Apr-19 19:30N 39°00' W 090°41'0 0.2
2018-Apr-19 19:00N 39°00' W 090°41'0 0.0
2018-Apr-19 18:30N 39°00' W 090°41'1 1.1
2018-Apr-19 18:00N 38°60' W 090°41'2 3.5
2018-Apr-19 17:29N 38°58' W 090°40'2 3.9
2018-Apr-19 17:00N 38°56' W 090°40'2 3.7
2018-Apr-19 16:30N 38°55' W 090°39'2 4.1
2018-Apr-19 16:00N 38°53' W 090°37'2 4.0
2018-Apr-19 15:30N 38°52' W 090°35'2 4.3
2018-Apr-19 15:00N 38°53' W 090°32'2 4.2
2018-Apr-19 14:30N 38°55' W 090°31'2 4.0
2018-Apr-19 14:00N 38°56' W 090°29'2 4.1
2018-Apr-19 13:30N 38°57' W 090°27'2 4.8
2018-Apr-19 13:00N 38°58' W 090°24'3 5.5
2018-Apr-19 12:30N 38°57' W 090°21'3 5.5
2018-Apr-19 12:01N 38°55' W 090°18'3 5.6
2018-Apr-19 11:30N 38°55' W 090°14'3 5.4
2018-Apr-19 11:00N 38°53' W 090°12'2 4.7
2018-Apr-19 10:30N 38°52' W 090°09'0 0.6
2018-Apr-19 10:00N 38°52' W 090°09'1 2.3
2018-Apr-19 09:30N 38°51' W 090°07'1 2.7
2018-Apr-19 09:00N 38°50' W 090°06'2 3.1
2018-Apr-19 08:31N 38°49' W 090°07'2 3.5
2018-Apr-19 08:00N 38°47' W 090°08'2 3.0
2018-Apr-19 07:21N 38°45' W 090°09'1 3.6
2018-Apr-19 07:00N 38°44' W 090°09'2 4.1
2018-Apr-19 06:30N 38°42' W 090°11'1 0.9
2018-Apr-19 05:48N 38°42' W 090°11'1 2.4
2018-Apr-19 05:31N 38°41' W 090°11'2 3.8
2018-Apr-19 05:00N 38°39' W 090°11'1 1.0
2018-Apr-19 04:30N 38°39' W 090°11'0 0.1
2018-Apr-19 03:58N 38°39' W 090°11'0 0.3
2018-Apr-19 03:30N 38°39' W 090°11'0 0.1
2018-Apr-19 03:00N 38°39' W 090°11'0 0.1
2018-Apr-19 02:19N 38°39' W 090°11'0 0.1
2018-Apr-19 01:58N 38°39' W 090°11'0 0.0
2018-Apr-19 01:05N 38°39' W 090°11'0 0.3
2018-Apr-19 01:00N 38°39' W 090°11'0 0.1
2018-Apr-19 00:30N 38°39' W 090°11'0 0.0
2018-Apr-19 00:01N 38°39' W 090°11'0 0.0
2018-Apr-18 23:28N 38°39' W 090°11'0 0.1
2018-Apr-18 22:59N 38°39' W 090°11'0 0.0
2018-Apr-18 22:20N 38°39' W 090°11'0 0.4
2018-Apr-18 21:56N 38°39' W 090°11'1 3.0
2018-Apr-18 21:29N 38°38' W 090°11'  
2018-Apr-11 16:21N 32°40' W 091°07'2 4.9
2018-Apr-11 15:59N 32°39' W 091°07'2 4.9
2018-Apr-11 15:29N 32°36' W 091°08'3 5.3
2018-Apr-11 15:00N 32°34' W 091°07'3 5.2
2018-Apr-11 14:30N 32°32' W 091°07'3 5.1
2018-Apr-11 14:00N 32°29' W 091°07'2 4.7
2018-Apr-11 13:30N 32°27' W 091°05'3 5.5
2018-Apr-11 13:00N 32°26' W 091°02'3 5.0
2018-Apr-11 12:30N 32°25' W 091°00'2 4.9
2018-Apr-11 12:00N 32°22' W 091°00'2 4.3
2018-Apr-11 11:30N 32°21' W 090°58'2 4.7
2018-Apr-11 11:00N 32°20' W 090°56'2 3.3
2018-Apr-11 10:30N 32°19' W 090°54'3 5.3
2018-Apr-11 10:00N 32°17' W 090°57'2 4.8
2018-Apr-11 09:30N 32°15' W 090°58'3 5.4
2018-Apr-11 09:00N 32°13' W 090°59'2 4.9
2018-Apr-11 08:30N 32°10' W 090°60'2 4.6
2018-Apr-11 08:00N 32°08' W 091°01'2 4.5
2018-Apr-11 07:30N 32°08' W 091°03'2 4.4
2018-Apr-11 07:00N 32°07' W 091°06'2 4.8
2018-Apr-11 06:30N 32°05' W 091°05'3 5.0
2018-Apr-11 06:00N 32°02' W 091°05'  

Dump ship's entire track history